Time;durP1;ratioP1;P1;durP2;ratioP2;P2;SDS_P1;SDS_P2;PMS_P1;PMS_P2;Temp;Humidity;BMP_temperature;BMP_pressure;BME280_temperature;BME280_humidity;BME280_pressure;Samples;Min_cycle;Max_cycle;Signal;HPM_P1;HPM_P2
2022/07/10 00:00:29;;;;;;;2.57;1.77;;;21.10;89.40;;;;;;5100056;28;20175;-95
2022/07/10 00:02:55;;;;;;;2.00;1.90;;;21.10;89.60;;;;;;5098745;28;20425;-92
2022/07/10 00:05:21;;;;;;;1.70;1.60;;;21.10;89.90;;;;;;5097831;28;20455;-93
2022/07/10 00:07:47;;;;;;;2.13;1.93;;;21.10;90.00;;;;;;5097942;28;20489;-93
2022/07/10 00:10:13;;;;;;;2.10;1.80;;;21.10;90.10;;;;;;5098284;28;20480;-93
2022/07/10 00:12:39;;;;;;;1.83;1.73;;;21.10;90.10;;;;;;5099615;28;20474;-93
2022/07/10 00:15:06;;;;;;;2.47;2.00;;;21.10;90.20;;;;;;5097728;28;20179;-95
2022/07/10 00:17:32;;;;;;;1.73;1.63;;;21.10;90.30;;;;;;5097618;28;20448;-95
2022/07/10 00:19:59;;;;;;;2.30;2.03;;;21.10;90.30;;;;;;5098941;28;20409;-95
2022/07/10 00:22:25;;;;;;;2.37;1.80;;;21.10;90.40;;;;;;5102929;28;20432;-92
2022/07/10 00:24:50;;;;;;;1.90;1.80;;;21.10;90.50;;;;;;5104409;28;20506;-95
2022/07/10 00:27:17;;;;;;;2.20;2.07;;;21.10;90.60;;;;;;5098621;28;20471;-92
2022/07/10 00:29:46;;;;;;;2.17;2.00;;;21.10;90.60;;;;;;5097818;28;20240;-95
2022/07/10 00:32:12;;;;;;;2.07;1.97;;;21.10;90.70;;;;;;5103736;28;20432;-95
2022/07/10 00:34:38;;;;;;;2.03;1.90;;;21.10;90.80;;;;;;5102026;28;20943;-93
2022/07/10 00:37:04;;;;;;;2.57;1.47;;;21.10;90.90;;;;;;5100412;28;20431;-92
2022/07/10 00:39:30;;;;;;;2.27;2.03;;;21.10;91.00;;;;;;5097377;28;20425;-93
2022/07/10 00:42:09;;;;;;;1.60;1.50;;;21.10;91.10;;;;;;5097182;28;20436;-94
2022/07/10 00:44:35;;;;;;;2.73;2.10;;;21.10;91.20;;;;;;5097266;28;20433;-95
2022/07/10 00:47:05;;;;;;;2.33;2.10;;;21.00;91.20;;;;;;5100426;28;20561;-93
2022/07/10 00:49:34;;;;;;;2.07;1.97;;;21.00;91.30;;;;;;5098470;28;20471;-95
2022/07/10 00:52:03;;;;;;;4.30;1.63;;;21.00;91.40;;;;;;5096941;28;20447;-92
2022/07/10 00:54:36;;;;;;;1.80;1.70;;;21.00;91.50;;;;;;5113902;28;20413;-95
2022/07/10 00:57:05;;;;;;;3.03;1.90;;;21.00;91.60;;;;;;5097070;28;20460;-95
2022/07/10 00:59:31;;;;;;;2.70;1.90;;;21.00;91.70;;;;;;5100589;28;20432;-95
2022/07/10 01:01:56;;;;;;;3.13;2.00;;;21.00;91.70;;;;;;5098830;28;20921;-93
2022/07/10 01:04:22;;;;;;;2.50;1.97;;;21.00;91.80;;;;;;5097519;28;20811;-95
2022/07/10 01:06:53;;;;;;;2.00;1.90;;;21.00;91.90;;;;;;5096336;28;20726;-94
2022/07/10 01:09:19;;;;;;;1.90;1.60;;;21.00;91.90;;;;;;5096703;28;20250;-93
2022/07/10 01:11:45;;;;;;;2.17;1.80;;;21.00;92.00;;;;;;5101553;28;20432;-95
2022/07/10 01:14:11;;;;;;;2.37;2.17;;;21.00;92.00;;;;;;5097793;28;20270;-91
2022/07/10 01:16:37;;;;;;;2.60;1.93;;;21.00;92.10;;;;;;5096270;28;20551;-94
2022/07/10 01:19:03;;;;;;;2.33;1.90;;;21.00;92.10;;;;;;5096336;28;20176;-93
2022/07/10 01:21:31;;;;;;;1.77;1.67;;;21.00;92.10;;;;;;5097621;28;20439;-95
2022/07/10 01:23:57;;;;;;;4.70;1.67;;;21.00;92.20;;;;;;5118907;28;20412;-95
2022/07/10 01:26:24;;;;;;;2.20;2.10;;;20.90;92.30;;;;;;5102080;28;20516;-92
2022/07/10 01:28:51;;;;;;;2.73;2.13;;;20.90;92.30;;;;;;5097259;28;20460;-94
2022/07/10 01:31:23;;;;;;;2.43;1.80;;;20.90;92.40;;;;;;5096313;28;20439;-94
2022/07/10 01:33:49;;;;;;;3.53;2.13;;;20.90;92.50;;;;;;5097097;28;20408;-94
2022/07/10 01:36:16;;;;;;;2.20;2.00;;;20.90;92.50;;;;;;5098901;28;20454;-94
2022/07/10 01:38:42;;;;;;;2.00;1.90;;;20.90;92.50;;;;;;5096287;28;20515;-92
2022/07/10 01:41:08;;;;;;;2.13;1.93;;;20.90;92.60;;;;;;5096107;28;20459;-91
2022/07/10 01:43:35;;;;;;;2.17;1.97;;;20.80;92.70;;;;;;5096184;28;20404;-92
2022/07/10 01:46:03;;;;;;;3.73;1.90;;;20.80;92.80;;;;;;5096057;28;20635;-91
2022/07/10 01:48:29;;;;;;;1.70;1.60;;;20.80;92.90;;;;;;5098706;28;20408;-92
2022/07/10 01:50:55;;;;;;;2.53;1.83;;;20.80;93.00;;;;;;5097690;28;20456;-91
2022/07/10 01:53:21;;;;;;;2.07;1.80;;;20.80;93.10;;;;;;5095564;28;20798;-94
2022/07/10 01:55:47;;;;;;;2.07;1.90;;;20.70;93.10;;;;;;5095697;28;20424;-92
2022/07/10 01:58:12;;;;;;;1.87;1.73;;;20.70;93.20;;;;;;5095578;28;20193;-92
2022/07/10 02:00:38;;;;;;;1.43;1.13;;;20.70;93.20;;;;;;5095821;28;20183;-94
2022/07/10 02:05:48;;;;;;;1.97;1.87;;;20.70;93.40;;;;;;5096826;28;20987;-92
2022/07/10 02:08:14;;;;;;;2.03;1.77;;;20.70;93.50;;;;;;5096931;28;20439;-94
2022/07/10 02:10:39;;;;;;;1.60;1.27;;;20.70;93.60;;;;;;5097862;28;20280;-93
2022/07/10 02:13:05;;;;;;;1.67;1.30;;;20.70;93.60;;;;;;5096296;28;20605;-95
2022/07/10 02:15:31;;;;;;;2.30;1.70;;;20.70;93.80;;;;;;5098508;28;20203;-94
2022/07/10 02:17:56;;;;;;;1.40;1.30;;;20.70;93.90;;;;;;5096211;28;20196;-94
2022/07/10 02:20:22;;;;;;;1.80;1.57;;;20.70;94.00;;;;;;5112522;28;20217;-94
2022/07/10 02:22:48;;;;;;;2.50;1.90;;;20.70;94.10;;;;;;5095062;28;20231;-92
2022/07/10 02:25:13;;;;;;;1.50;1.40;;;20.70;94.20;;;;;;5095264;28;20947;-91
2022/07/10 02:27:39;;;;;;;1.63;1.47;;;20.70;94.30;;;;;;5096997;28;20211;-92
2022/07/10 02:30:06;;;;;;;1.30;1.20;;;20.70;94.50;;;;;;5094840;28;20241;-94
2022/07/10 02:32:31;;;;;;;1.57;1.47;;;20.70;94.60;;;;;;5095190;28;20206;-95
2022/07/10 02:34:57;;;;;;;1.60;1.50;;;20.70;94.70;;;;;;5096309;28;20778;-91
2022/07/10 02:37:23;;;;;;;1.23;1.10;;;20.70;94.80;;;;;;5096037;28;20286;-91
2022/07/10 02:39:49;;;;;;;2.17;1.97;;;20.70;94.90;;;;;;5096139;28;20282;-92
2022/07/10 02:42:14;;;;;;;1.70;1.47;;;20.70;95.10;;;;;;5095356;28;20211;-95
2022/07/10 02:44:40;;;;;;;1.57;1.47;;;20.70;95.20;;;;;;5096124;28;20616;-94
2022/07/10 02:47:06;;;;;;;1.87;1.50;;;20.70;95.30;;;;;;5094720;28;20235;-92
2022/07/10 02:49:33;;;;;;;2.17;1.77;;;20.70;95.50;;;;;;5097335;28;20334;-94
2022/07/10 02:51:58;;;;;;;1.50;1.40;;;20.70;95.70;;;;;;5094560;28;20214;-94
2022/07/10 02:54:24;;;;;;;1.80;1.70;;;20.80;95.80;;;;;;5097224;28;20427;-94
2022/07/10 02:56:50;;;;;;;1.33;1.23;;;20.70;95.90;;;;;;5095240;28;20201;-91
2022/07/10 02:59:18;;;;;;;2.13;1.57;;;20.70;96.10;;;;;;5095978;28;20508;-92
2022/07/10 03:01:44;;;;;;;1.70;1.40;;;20.80;96.30;;;;;;5094478;28;20206;-91
2022/07/10 03:04:09;;;;;;;1.40;1.30;;;20.80;96.40;;;;;;5095166;28;20409;-91
2022/07/10 03:06:35;;;;;;;1.63;1.47;;;20.80;96.50;;;;;;5095566;28;20239;-92
2022/07/10 03:09:01;;;;;;;1.53;1.43;;;20.80;96.60;;;;;;5111557;28;20215;-92
2022/07/10 03:11:26;;;;;;;1.40;1.30;;;20.80;96.70;;;;;;5094340;28;20198;-94
2022/07/10 03:13:52;;;;;;;3.33;1.40;;;20.80;96.80;;;;;;5096941;28;20182;-93
2022/07/10 03:16:18;;;;;;;1.27;1.17;;;20.80;96.90;;;;;;5113232;28;20195;-92
2022/07/10 03:18:45;;;;;;;2.00;1.90;;;20.80;97.00;;;;;;5094169;28;20180;-93
2022/07/10 03:21:11;;;;;;;1.63;1.40;;;20.80;97.10;;;;;;5094301;28;20240;-93
2022/07/10 03:23:39;;;;;;;1.90;1.60;;;20.90;97.20;;;;;;5093138;28;20412;-94
2022/07/10 03:26:05;;;;;;;1.47;1.37;;;20.90;97.30;;;;;;5096225;28;20491;-94
2022/07/10 03:28:31;;;;;;;1.73;1.63;;;20.90;97.50;;;;;;5094259;28;20427;-91
2022/07/10 03:30:56;;;;;;;2.60;2.00;;;20.90;97.60;;;;;;5094228;28;20438;-92
2022/07/10 03:33:22;;;;;;;3.37;1.93;;;20.90;97.60;;;;;;5094278;28;20445;-91
2022/07/10 03:35:48;;;;;;;6.70;1.70;;;20.90;97.70;;;;;;5094253;28;20432;-92
2022/07/10 03:38:14;;;;;;;2.73;1.30;;;20.90;97.80;;;;;;5093857;28;20267;-94
2022/07/10 03:40:40;;;;;;;1.80;1.30;;;20.90;97.90;;;;;;5096629;28;20188;-92
2022/07/10 03:43:06;;;;;;;1.63;1.50;;;20.90;97.90;;;;;;5110792;28;20475;-92
2022/07/10 03:45:32;;;;;;;1.43;1.33;;;21.00;98.00;;;;;;5093964;28;20425;-92
2022/07/10 03:47:57;;;;;;;3.00;2.80;;;21.00;98.10;;;;;;5094015;28;20433;-93
2022/07/10 03:50:23;;;;;;;1.97;1.87;;;21.00;98.10;;;;;;5095211;28;20225;-94
2022/07/10 03:52:49;;;;;;;1.53;1.10;;;21.00;98.20;;;;;;5097052;28;20218;-92
2022/07/10 03:55:14;;;;;;;2.27;1.50;;;21.00;98.20;;;;;;5095122;28;20505;-94
2022/07/10 03:57:57;;;;;;;1.50;1.40;;;21.00;98.30;;;;;;5094672;28;20285;-92
2022/07/10 04:00:24;;;;;;;1.67;1.50;;;21.00;98.40;;;;;;5095322;28;20179;-92
2022/07/10 04:03:04;;;;;;;1.90;1.00;;;21.00;98.50;;;;;;5094983;28;20460;-91
2022/07/10 04:05:30;;;;;;;1.33;1.20;;;21.00;98.70;;;;;;5115007;28;20524;-91
2022/07/10 04:07:57;;;;;;;1.77;1.67;;;20.90;98.70;;;;;;5093652;28;20440;-92
2022/07/10 04:10:23;;;;;;;4.67;1.57;;;20.90;99.20;;;;;;5095047;28;20219;-92
2022/07/10 04:12:49;;;;;;;2.63;1.43;;;20.90;98.90;;;;;;5093559;28;20500;-94
2022/07/10 04:15:16;;;;;;;1.53;1.30;;;20.90;99.00;;;;;;5095134;28;20777;-93
2022/07/10 04:17:42;;;;;;;1.87;1.17;;;20.90;99.10;;;;;;5094174;28;20447;-93
2022/07/10 04:20:08;;;;;;;1.40;1.30;;;20.90;99.20;;;;;;5094923;28;20451;-94
2022/07/10 04:22:34;;;;;;;1.63;1.27;;;20.90;99.20;;;;;;5093776;28;20435;-94
2022/07/10 04:24:59;;;;;;;1.33;1.23;;;20.90;99.30;;;;;;5093546;28;20431;-91
2022/07/10 04:27:25;;;;;;;1.13;1.07;;;20.90;99.30;;;;;;5093589;28;20192;-95
2022/07/10 04:29:51;;;;;;;1.43;1.33;;;20.90;99.40;;;;;;5095061;28;20223;-95
2022/07/10 04:32:17;;;;;;;1.40;1.30;;;20.90;99.50;;;;;;5094569;28;20278;-91
2022/07/10 04:34:43;;;;;;;1.10;1.00;;;20.90;99.50;;;;;;5095013;28;20470;-92
2022/07/10 04:37:09;;;;;;;1.90;1.50;;;20.90;99.60;;;;;;5098345;28;20409;-92
2022/07/10 04:39:35;;;;;;;1.77;1.00;;;20.90;99.50;;;;;;5098534;28;20176;-95
2022/07/10 04:42:03;;;;;;;0.90;0.90;;;20.90;99.60;;;;;;5100429;28;20197;-94
2022/07/10 04:44:29;;;;;;;1.10;1.00;;;20.90;99.70;;;;;;5097186;28;20928;-92
2022/07/10 04:46:55;;;;;;;1.53;1.33;;;20.90;99.80;;;;;;5097770;28;20462;-94
2022/07/10 04:49:20;;;;;;;1.57;1.40;;;20.90;99.80;;;;;;5099992;28;20464;-92
2022/07/10 04:51:46;;;;;;;2.30;1.47;;;20.90;99.80;;;;;;5102808;28;20438;-92
2022/07/10 04:54:12;;;;;;;1.37;1.27;;;21.00;99.90;;;;;;5103886;28;20210;-92
2022/07/10 04:56:37;;;;;;;4.03;1.43;;;21.00;99.90;;;;;;5097558;28;20200;-92
2022/07/10 04:59:03;;;;;;;1.30;1.20;;;21.00;99.90;;;;;;5115341;28;20312;-92
2022/07/10 05:01:29;;;;;;;4.07;1.47;;;21.10;99.90;;;;;;5097759;28;20196;-93
2022/07/10 05:03:54;;;;;;;1.83;1.50;;;21.10;99.80;;;;;;5097068;28;20648;-92
2022/07/10 05:06:20;;;;;;;2.50;1.33;;;21.20;99.70;;;;;;5118737;27;20249;-93
2022/07/10 05:08:46;;;;;;;1.27;1.17;;;21.20;99.50;;;;;;5097996;28;20207;-92
2022/07/10 05:11:12;;;;;;;1.30;1.20;;;21.20;99.40;;;;;;5097623;28;20184;-92
2022/07/10 05:13:38;;;;;;;1.30;1.20;;;21.20;99.30;;;;;;5114413;28;20183;-92
2022/07/10 05:16:07;;;;;;;1.27;1.00;;;21.20;99.30;;;;;;5097722;28;20233;-95
2022/07/10 05:18:32;;;;;;;1.43;1.33;;;21.20;99.40;;;;;;5101649;28;20409;-95
2022/07/10 05:20:58;;;;;;;1.43;1.20;;;21.30;99.30;;;;;;5096568;28;20439;-95
2022/07/10 05:23:24;;;;;;;1.17;1.03;;;21.30;99.20;;;;;;5097608;28;20196;-93
2022/07/10 05:25:49;;;;;;;2.20;1.33;;;21.30;99.20;;;;;;5096467;28;20177;-92
2022/07/10 05:28:15;;;;;;;1.13;1.03;;;21.30;99.10;;;;;;5096492;28;20676;-96
2022/07/10 05:30:42;;;;;;;1.40;1.30;;;21.30;99.20;;;;;;5099021;28;20219;-94
2022/07/10 05:33:07;;;;;;;1.37;1.10;;;21.40;99.10;;;;;;5099039;28;20197;-94
2022/07/10 05:35:33;;;;;;;1.80;1.20;;;21.40;99.20;;;;;;5097440;28;20413;-94
2022/07/10 05:37:59;;;;;;;1.00;0.90;;;21.30;99.20;;;;;;5097797;28;20265;-95
2022/07/10 05:40:25;;;;;;;1.87;1.27;;;21.30;99.30;;;;;;5096965;28;20207;-95
2022/07/10 05:42:51;;;;;;;1.60;1.20;;;21.40;99.40;;;;;;5098526;28;20437;-92
2022/07/10 05:45:17;;;;;;;1.07;0.97;;;21.40;99.40;;;;;;5098051;28;20582;-93
2022/07/10 05:47:42;;;;;;;1.17;1.10;;;21.40;99.20;;;;;;5095958;28;20208;-92
2022/07/10 05:50:09;;;;;;;2.93;1.10;;;21.50;99.10;;;;;;5096871;28;20468;-92
2022/07/10 05:52:34;;;;;;;0.73;0.73;;;21.50;98.90;;;;;;5095687;28;20204;-95
2022/07/10 05:55:00;;;;;;;1.00;0.90;;;21.50;98.90;;;;;;5096956;28;20416;-92
2022/07/10 05:57:26;;;;;;;0.80;0.70;;;21.60;98.60;;;;;;5097082;28;20231;-95
2022/07/10 05:59:52;;;;;;;1.57;1.20;;;21.60;98.40;;;;;;5095652;28;20203;-92
2022/07/10 06:02:17;;;;;;;1.47;1.27;;;21.60;98.30;;;;;;5096653;28;20197;-92
2022/07/10 06:04:43;;;;;;;0.93;0.90;;;21.60;98.20;;;;;;5095964;28;20423;-93
2022/07/10 06:07:09;;;;;;;1.80;1.10;;;21.60;98.20;;;;;;5094991;28;20240;-92
2022/07/10 06:09:34;;;;;;;1.13;1.03;;;21.70;98.20;;;;;;5097540;28;20215;-95
2022/07/10 06:12:00;;;;;;;1.57;1.17;;;21.70;98.20;;;;;;5095241;28;20209;-94
2022/07/10 06:14:26;;;;;;;1.20;1.10;;;21.80;98.20;;;;;;5095435;28;20617;-94
2022/07/10 06:16:52;;;;;;;1.43;1.33;;;21.80;98.10;;;;;;5096321;28;20493;-95
2022/07/10 06:19:18;;;;;;;1.37;1.17;;;21.90;98.10;;;;;;5096295;28;20492;-92
2022/07/10 06:21:44;;;;;;;1.33;1.00;;;21.90;98.00;;;;;;5096572;28;20336;-95
2022/07/10 06:24:10;;;;;;;4.57;1.10;;;22.00;98.20;;;;;;5094989;28;20195;-95
2022/07/10 06:26:36;;;;;;;2.83;1.37;;;22.10;97.90;;;;;;5096071;28;20422;-93
2022/07/10 06:29:01;;;;;;;1.47;1.03;;;22.10;97.80;;;;;;5094883;28;20266;-92
2022/07/10 06:31:28;;;;;;;1.50;1.40;;;22.20;97.70;;;;;;5111922;28;20283;-93
2022/07/10 06:33:54;;;;;;;3.60;1.27;;;22.20;97.60;;;;;;5097660;28;20172;-93
2022/07/10 06:36:20;;;;;;;1.83;1.13;;;22.30;97.50;;;;;;5094987;28;20476;-93
2022/07/10 06:38:45;;;;;;;1.00;0.90;;;22.30;97.40;;;;;;5094730;28;20173;-93
2022/07/10 06:41:11;;;;;;;1.60;1.40;;;22.40;97.40;;;;;;5094955;28;20196;-92
2022/07/10 06:43:37;;;;;;;4.47;1.10;;;22.40;97.40;;;;;;5095631;28;20214;-94
2022/07/10 06:46:03;;;;;;;2.80;1.37;;;22.50;97.40;;;;;;5097233;28;20212;-95
2022/07/10 06:48:29;;;;;;;3.10;1.30;;;22.50;97.30;;;;;;5096018;28;20412;-91
2022/07/10 06:50:55;;;;;;;1.27;1.17;;;22.60;97.20;;;;;;5094595;28;20432;-92
2022/07/10 06:53:25;;;;;;;3.40;1.50;;;22.70;97.20;;;;;;5095749;28;20275;-93
2022/07/10 06:55:51;;;;;;;1.13;1.03;;;22.70;97.00;;;;;;5096154;28;20199;-95
2022/07/10 06:58:17;;;;;;;1.73;1.40;;;22.80;96.80;;;;;;5095112;28;20430;-93
2022/07/10 07:00:42;;;;;;;1.60;1.50;;;22.90;96.60;;;;;;5095102;28;20179;-92
2022/07/10 07:03:08;;;;;;;1.53;1.40;;;22.90;96.20;;;;;;5094308;28;20246;-95
2022/07/10 07:05:34;;;;;;;1.30;1.20;;;23.00;95.50;;;;;;5110161;28;20220;-93
2022/07/10 07:07:59;;;;;;;2.07;1.60;;;23.00;95.30;;;;;;5094399;28;20201;-92
2022/07/10 07:10:25;;;;;;;2.13;1.93;;;23.10;95.20;;;;;;5097646;28;20306;-96
2022/07/10 07:12:51;;;;;;;2.57;1.57;;;23.10;94.90;;;;;;5094224;28;20200;-94
2022/07/10 07:15:17;;;;;;;1.47;1.37;;;23.10;95.00;;;;;;5095562;28;20203;-95
2022/07/10 07:23:28;;;;;;;1.30;1.20;;;23.30;95.30;;;;;;5096764;28;20788;-92
2022/07/10 07:25:53;;;;;;;1.63;1.37;;;23.30;95.30;;;;;;5094464;28;20424;-93
2022/07/10 07:28:20;;;;;;;1.20;1.10;;;23.40;95.00;;;;;;5094164;28;20204;-93
2022/07/10 07:30:47;;;;;;;1.53;1.43;;;23.50;95.00;;;;;;5094039;28;20312;-92
2022/07/10 07:33:13;;;;;;;1.80;1.27;;;23.50;94.70;;;;;;5094020;28;20437;-94
2022/07/10 07:35:39;;;;;;;2.47;1.40;;;23.60;94.50;;;;;;5095710;28;20422;-95
2022/07/10 07:38:08;;;;;;;1.63;1.40;;;23.60;94.40;;;;;;5094398;28;20795;-95
2022/07/10 07:40:34;;;;;;;1.53;1.40;;;23.60;94.20;;;;;;5113139;28;20460;-94
2022/07/10 07:42:59;;;;;;;3.00;1.97;;;23.60;94.10;;;;;;5095333;28;20514;-95
2022/07/10 07:45:28;;;;;;;1.63;1.53;;;23.70;94.00;;;;;;5095734;28;20183;-92
2022/07/10 07:48:04;;;;;;;1.53;1.43;;;23.70;93.80;;;;;;5100876;28;20287;-94
2022/07/10 07:50:32;;;;;;;2.00;1.57;;;23.80;93.60;;;;;;5096807;28;20584;-95
2022/07/10 07:53:02;;;;;;;1.93;1.20;;;23.80;93.50;;;;;;5095639;28;20434;-92
2022/07/10 07:55:30;;;;;;;1.93;1.73;;;23.90;93.60;;;;;;5110660;28;20449;-95
2022/07/10 07:57:57;;;;;;;1.83;1.40;;;23.90;93.40;;;;;;5093746;28;20439;-94
2022/07/10 08:00:24;;;;;;;4.30;2.00;;;24.00;93.30;;;;;;5093858;28;20430;-95
2022/07/10 08:02:51;;;;;;;1.63;1.53;;;24.00;92.90;;;;;;5097193;28;20441;-95
2022/07/10 08:05:18;;;;;;;1.60;1.50;;;24.00;93.00;;;;;;5112736;28;20795;-92
2022/07/10 08:07:50;;;;;;;1.73;1.60;;;24.10;92.80;;;;;;5115698;28;20428;-91
2022/07/10 08:10:19;;;;;;;1.70;1.60;;;24.10;92.70;;;;;;5114522;28;20504;-94
2022/07/10 08:12:46;;;;;;;1.67;1.57;;;24.10;92.80;;;;;;5116350;28;20428;-93
2022/07/10 08:15:13;;;;;;;2.83;1.67;;;24.10;92.80;;;;;;5116207;28;20782;-95
2022/07/10 08:17:39;;;;;;;1.73;1.63;;;24.20;92.60;;;;;;5116005;28;20442;-91
2022/07/10 08:20:07;;;;;;;1.53;1.43;;;24.20;92.50;;;;;;5119142;28;20885;-95
2022/07/10 08:22:34;;;;;;;2.23;1.90;;;24.30;92.40;;;;;;5120925;28;20939;-94
2022/07/10 08:25:00;;;;;;;2.50;1.57;;;24.30;92.10;;;;;;5121466;28;20418;-96
2022/07/10 08:27:26;;;;;;;1.70;1.60;;;24.40;92.20;;;;;;5118614;28;20799;-95
2022/07/10 08:29:51;;;;;;;2.27;1.60;;;24.50;92.30;;;;;;5115773;28;20473;-96
2022/07/10 08:32:17;;;;;;;1.93;1.73;;;24.60;92.40;;;;;;5116086;28;20288;-92
2022/07/10 08:34:43;;;;;;;1.30;1.20;;;24.60;92.40;;;;;;5119734;28;20192;-92
2022/07/10 08:37:09;;;;;;;2.00;1.47;;;24.70;92.30;;;;;;5115705;28;20435;-92
2022/07/10 08:39:35;;;;;;;1.60;1.50;;;24.80;92.30;;;;;;5116713;28;20414;-92
2022/07/10 08:42:01;;;;;;;1.60;1.50;;;24.90;92.20;;;;;;5118475;28;20938;-92
2022/07/10 08:44:29;;;;;;;1.50;1.40;;;25.00;91.90;;;;;;5118706;28;20594;-92
2022/07/10 08:46:54;;;;;;;1.80;1.70;;;25.10;91.90;;;;;;5117887;28;20499;-92
2022/07/10 08:49:23;;;;;;;2.20;1.70;;;25.20;91.60;;;;;;5118348;28;20561;-92
2022/07/10 08:52:02;;;;;;;1.90;1.57;;;25.30;91.50;;;;;;5117390;28;20243;-92
2022/07/10 08:54:29;;;;;;;1.50;1.40;;;25.30;91.10;;;;;;5117319;28;20427;-93
2022/07/10 08:57:00;;;;;;;1.50;1.40;;;25.40;91.00;;;;;;5117606;28;20443;-93
2022/07/10 08:59:27;;;;;;;1.50;1.40;;;25.50;90.80;;;;;;5120110;28;20415;-95
2022/07/10 09:01:53;;;;;;;1.20;1.20;;;25.60;90.80;;;;;;5117246;28;20455;-93
2022/07/10 09:04:26;;;;;;;1.20;1.10;;;25.60;90.00;;;;;;5118235;28;20438;-93
2022/07/10 09:06:53;;;;;;;1.13;1.03;;;25.70;89.50;;;;;;5117915;28;20481;-95
2022/07/10 09:09:19;;;;;;;1.43;1.30;;;25.70;89.70;;;;;;5116953;28;20471;-92
2022/07/10 09:11:46;;;;;;;1.40;1.30;;;25.70;90.00;;;;;;5118257;28;20788;-94
2022/07/10 09:14:14;;;;;;;0.93;0.83;;;25.70;90.10;;;;;;5119805;28;20411;-93
2022/07/10 09:16:43;;;;;;;1.37;1.10;;;25.70;90.20;;;;;;5117853;27;20449;-94
2022/07/10 09:19:25;;;;;;;1.60;1.20;;;25.80;90.20;;;;;;5117100;28;20415;-92
2022/07/10 09:22:01;;;;;;;1.30;1.13;;;25.80;90.00;;;;;;5116413;28;20452;-94
2022/07/10 09:24:34;;;;;;;1.37;1.27;;;25.80;89.60;;;;;;5122054;28;20405;-92
2022/07/10 09:27:03;;;;;;;1.30;1.20;;;25.80;89.90;;;;;;5117685;27;20431;-95
2022/07/10 09:29:32;;;;;;;1.90;1.40;;;25.80;90.00;;;;;;5118134;28;20467;-95
2022/07/10 09:31:59;;;;;;;1.40;1.27;;;25.80;90.10;;;;;;5117689;28;20942;-92
2022/07/10 09:34:47;;;;;;;1.63;1.50;;;25.70;90.30;;;;;;5117866;28;20498;-94
2022/07/10 09:37:29;;;;;;;1.20;1.10;;;25.70;90.30;;;;;;5106565;28;20921;-92
2022/07/10 09:39:56;;;;;;;1.20;1.00;;;25.60;90.40;;;;;;5116559;28;20428;-94
2022/07/10 09:42:30;;;;;;;1.50;1.20;;;25.70;90.30;;;;;;5116441;28;20435;-92
2022/07/10 09:45:16;;;;;;;1.23;0.93;;;25.70;89.60;;;;;;5117285;28;20427;-95
2022/07/10 09:47:44;;;;;;;1.03;0.93;;;25.70;88.70;;;;;;5116337;28;20442;-92
2022/07/10 09:50:38;;;;;;;1.30;1.20;;;25.70;88.70;;;;;;5115854;28;20483;-93
2022/07/10 09:53:06;;;;;;;2.00;1.53;;;25.70;89.60;;;;;;5116381;28;20443;-92
2022/07/10 09:55:34;;;;;;;1.40;1.10;;;25.60;89.00;;;;;;5119050;28;20580;-95
2022/07/10 09:58:02;;;;;;;1.50;1.40;;;25.60;89.30;;;;;;5118052;28;20435;-95
2022/07/10 10:00:40;;;;;;;4.40;1.20;;;25.50;89.90;;;;;;5116292;28;20751;-95
2022/07/10 10:03:14;;;;;;;0.73;0.73;;;25.50;89.00;;;;;;5116160;28;20462;-92
2022/07/10 10:06:02;;;;;;;0.93;0.90;;;25.50;88.30;;;;;;5116066;28;20556;-94
2022/07/10 10:08:32;;;;;;;1.10;1.03;;;25.50;87.20;;;;;;5117327;28;20416;-92
2022/07/10 10:10:59;;;;;;;1.20;1.10;;;25.50;87.90;;;;;;5116147;28;20882;-95
2022/07/10 10:13:27;;;;;;;1.20;1.10;;;25.50;87.50;;;;;;5115840;28;20456;-95
2022/07/10 10:15:53;;;;;;;1.90;1.40;;;25.50;87.20;;;;;;5116179;28;20440;-94
2022/07/10 10:18:23;;;;;;;1.30;1.30;;;25.60;88.60;;;;;;5117561;28;20844;-92
2022/07/10 10:20:51;;;;;;;1.40;1.30;;;25.60;89.10;;;;;;5118846;28;20422;-92
2022/07/10 10:23:22;;;;;;;2.20;1.20;;;25.70;89.80;;;;;;5116906;28;20552;-95
2022/07/10 10:25:49;;;;;;;1.30;1.20;;;25.70;88.80;;;;;;5115734;28;20435;-96
2022/07/10 10:28:17;;;;;;;2.17;1.20;;;25.80;87.40;;;;;;5115508;28;20431;-92
2022/07/10 10:30:44;;;;;;;1.23;1.13;;;25.90;86.80;;;;;;5116829;28;20999;-93
2022/07/10 10:33:31;;;;;;;1.33;1.23;;;26.00;87.20;;;;;;5117105;28;21016;-92
2022/07/10 10:35:58;;;;;;;1.57;1.30;;;26.00;87.40;;;;;;5115886;28;20440;-92
2022/07/10 10:38:24;;;;;;;2.00;1.13;;;26.10;86.90;;;;;;5115468;28;21015;-92
2022/07/10 10:40:49;;;;;;;1.53;1.43;;;26.10;87.70;;;;;;5116747;28;20510;-94
2022/07/10 10:43:23;;;;;;;1.57;1.33;;;26.00;86.90;;;;;;5115315;28;20206;-95
2022/07/10 10:45:50;;;;;;;1.13;1.03;;;26.00;88.00;;;;;;5115538;28;20665;-91
2022/07/10 10:48:17;;;;;;;1.00;1.00;;;26.00;86.70;;;;;;5117055;28;20532;-93
2022/07/10 10:50:55;;;;;;;1.13;1.03;;;26.00;85.80;;;;;;5122467;28;20478;-93
2022/07/10 10:53:22;;;;;;;1.60;1.10;;;26.10;86.30;;;;;;5115160;28;20979;-93
2022/07/10 10:56:00;;;;;;;1.77;1.47;;;26.10;85.10;;;;;;5116341;28;20514;-94
2022/07/10 10:58:45;;;;;;;1.30;1.20;;;26.20;84.90;;;;;;5115200;28;20422;-92
2022/07/10 11:01:23;;;;;;;4.50;1.60;;;26.20;85.20;;;;;;5116445;28;20435;-94
2022/07/10 11:04:04;;;;;;;1.20;1.10;;;26.20;84.10;;;;;;5115066;28;20795;-93
2022/07/10 11:06:43;;;;;;;2.03;1.10;;;26.30;84.30;;;;;;5114497;28;20566;-93
2022/07/10 11:09:32;;;;;;;0.93;0.90;;;26.30;83.70;;;;;;5115902;28;20452;-93
2022/07/10 11:12:03;;;;;;;0.93;0.73;;;26.30;82.70;;;;;;5117525;28;20952;-95
2022/07/10 11:14:37;;;;;;;1.10;1.00;;;26.40;81.90;;;;;;5114682;28;20463;-94
2022/07/10 11:17:04;;;;;;;0.83;0.73;;;26.40;81.80;;;;;;5114906;28;20800;-94
2022/07/10 11:19:31;;;;;;;1.00;1.00;;;26.40;80.50;;;;;;5115968;27;20420;-92
2022/07/10 11:22:06;;;;;;;1.70;1.00;;;26.40;80.40;;;;;;5115552;28;20455;-93
2022/07/10 11:24:44;;;;;;;1.30;1.20;;;26.50;79.80;;;;;;5115941;28;20431;-94
2022/07/10 11:27:21;;;;;;;1.13;1.03;;;26.50;80.00;;;;;;5116181;28;20431;-95
2022/07/10 11:29:57;;;;;;;0.90;0.80;;;26.50;80.00;;;;;;5115683;28;20475;-92
2022/07/10 11:32:22;;;;;;;1.03;1.03;;;26.60;80.90;;;;;;5114723;28;20519;-95
2022/07/10 11:34:48;;;;;;;1.43;1.17;;;26.60;81.50;;;;;;5116951;28;20921;-93
2022/07/10 11:37:16;;;;;;;1.27;1.17;;;26.60;80.80;;;;;;5117018;28;20589;-93
2022/07/10 11:39:42;;;;;;;2.83;1.10;;;26.60;80.60;;;;;;5114846;28;20960;-92
2022/07/10 11:42:08;;;;;;;1.13;1.03;;;26.60;81.10;;;;;;5114424;28;20420;-93
2022/07/10 11:44:34;;;;;;;1.20;1.10;;;26.60;81.60;;;;;;5118137;28;20412;-93
2022/07/10 11:47:02;;;;;;;2.20;1.00;;;26.60;81.30;;;;;;5116131;28;20451;-92
2022/07/10 11:49:28;;;;;;;2.27;1.20;;;26.60;81.20;;;;;;5118236;28;20482;-93
2022/07/10 11:51:56;;;;;;;1.60;1.50;;;26.60;81.00;;;;;;5115402;28;20416;-95
2022/07/10 11:54:21;;;;;;;1.30;1.20;;;26.70;80.90;;;;;;5114192;28;20788;-95
2022/07/10 11:56:49;;;;;;;1.10;1.00;;;26.70;79.60;;;;;;5114130;28;20432;-95
2022/07/10 11:59:19;;;;;;;1.30;1.20;;;26.70;80.10;;;;;;5114519;28;20194;-96
2022/07/10 12:01:48;;;;;;;1.30;1.07;;;26.70;79.10;;;;;;5119709;28;20466;-93
2022/07/10 12:04:16;;;;;;;1.80;1.47;;;26.80;78.60;;;;;;5118149;28;20424;-96
2022/07/10 12:06:44;;;;;;;3.50;1.50;;;26.80;78.50;;;;;;5118236;28;20502;-94
2022/07/10 12:09:15;;;;;;;1.60;1.30;;;26.80;79.10;;;;;;5119355;28;20482;-94
2022/07/10 12:11:42;;;;;;;1.23;1.13;;;26.80;79.30;;;;;;5114185;28;20538;-95
2022/07/10 12:14:19;;;;;;;1.47;1.20;;;26.70;79.80;;;;;;5113944;28;20404;-95
2022/07/10 12:16:47;;;;;;;1.23;1.13;;;26.70;80.80;;;;;;5116268;28;20427;-93
2022/07/10 12:19:17;;;;;;;1.50;1.40;;;26.80;81.60;;;;;;5115394;28;20424;-92
2022/07/10 12:21:46;;;;;;;1.40;1.30;;;26.80;81.20;;;;;;5113941;28;20437;-93
2022/07/10 12:24:13;;;;;;;0.77;0.77;;;26.80;80.00;;;;;;5113998;28;20412;-95
2022/07/10 12:26:41;;;;;;;2.13;1.93;;;26.80;79.60;;;;;;5114151;28;20519;-93
2022/07/10 12:29:19;;;;;;;2.30;1.20;;;26.80;79.80;;;;;;5116677;28;20838;-95
2022/07/10 12:31:46;;;;;;;3.50;1.03;;;26.70;81.10;;;;;;5114018;28;20432;-95
2022/07/10 12:34:13;;;;;;;2.40;1.40;;;26.70;80.60;;;;;;5114168;28;20416;-95
2022/07/10 12:36:45;;;;;;;1.63;1.53;;;26.60;80.70;;;;;;5114914;28;20515;-94
2022/07/10 12:39:19;;;;;;;1.40;1.00;;;26.60;80.10;;;;;;5114174;28;20448;-95
2022/07/10 12:42:03;;;;;;;1.20;1.10;;;26.60;80.00;;;;;;5116358;28;20432;-92
2022/07/10 12:45:10;;;;;;;4.23;1.63;;;26.50;79.80;;;;;;5113971;28;20428;-95
2022/07/10 12:47:46;;;;;;;1.30;0.90;;;26.50;79.80;;;;;;5087183;28;20444;-95
2022/07/10 12:50:16;;;;;;;1.87;1.50;;;26.60;80.10;;;;;;5104497;28;20555;-94
2022/07/10 12:52:42;;;;;;;0.70;0.70;;;26.60;79.40;;;;;;5116571;28;20424;-95
2022/07/10 12:55:21;;;;;;;1.27;1.07;;;26.70;79.00;;;;;;5117647;28;20985;-95
2022/07/10 12:57:52;;;;;;;1.93;0.93;;;26.80;78.90;;;;;;5117997;28;20867;-96
2022/07/10 13:00:34;;;;;;;0.70;0.70;;;26.80;77.40;;;;;;5118903;28;20428;-94